Decoded Metar for KGTB (FORT DRUM in NY, USA) (IATA:GTB) | Meteo·Mobile Aviation Weather
aviador You're here:

KGTB Decoded Metar

FORT DRUM in NY, USA
Report Time2019-07-23 03:56:00
UTC Time2019-07-23 04:03:57
Flight Rules vfr VFR
WindCalm
Visibility9999 m
Phenomena:N/A
Clouds:Few 100 Hf
Expected CloudBase > 400 ft AGL from Temp-Dew spread
CeilingNone
Temp17°C (ISA +3)
Dew Point16°C (94% RH)
QNH1011 hPa
Density Alt1,385 ft
Elevation679 ft
Report Wrong Elevation
Raw Report
METAR KGTB 230356Z AUTO 00000KT 10SM FEW100 17/16 A2986 RMK AO2 SLP110
T01680161=

Extra information for KGTB:More info

Metar Taf Metar & Taf Last 4 Metars F.Rules Stats Wind Profile Meteogram Temp Stats Airport Information Weather charts Add Link Nearby VenuesMetar ALERT Operation Metar Decoded Social comments

AIRNAV info for KGTB